createdAt,value
2023-02-16T00:02:11.325Z,89.60
2023-02-16T00:04:38.548Z,89.60
2023-02-16T00:07:05.771Z,89.40
2023-02-16T00:09:32.962Z,89.10
2023-02-16T00:12:35.537Z,89.10
2023-02-16T00:15:15.835Z,88.90
2023-02-16T00:17:43.068Z,88.80
2023-02-16T00:20:15.340Z,88.80
2023-02-16T00:22:42.948Z,89.00
2023-02-16T00:25:10.856Z,89.20
2023-02-16T00:27:38.378Z,89.50
2023-02-16T00:30:20.706Z,89.90
2023-02-16T00:32:50.306Z,89.90
2023-02-16T00:35:19.438Z,90.10
2023-02-16T00:37:47.838Z,90.30
2023-02-16T00:40:16.776Z,90.30
2023-02-16T00:42:46.832Z,90.20
2023-02-16T00:45:21.679Z,90.40
2023-02-16T00:47:52.477Z,90.50
2023-02-16T00:50:24.765Z,90.80
2023-02-16T00:52:52.161Z,91.00
2023-02-16T00:55:25.236Z,91.10
2023-02-16T00:58:15.570Z,91.20
2023-02-16T01:00:50.746Z,91.30
2023-02-16T01:03:24.043Z,91.20
2023-02-16T01:06:11.344Z,91.10
2023-02-16T01:08:57.486Z,91.00
2023-02-16T01:11:25.613Z,91.10
2023-02-16T01:13:54.829Z,91.20
2023-02-16T01:16:25.185Z,91.10
2023-02-16T01:18:53.026Z,91.20
2023-02-16T01:21:22.047Z,91.50
2023-02-16T01:23:49.400Z,92.00
2023-02-16T01:26:20.046Z,92.20
2023-02-16T01:28:48.301Z,92.20
2023-02-16T01:31:17.541Z,91.90
2023-02-16T01:33:44.969Z,91.70
2023-02-16T01:36:28.383Z,91.20
2023-02-16T01:38:55.666Z,90.90
2023-02-16T01:41:46.495Z,91.00
2023-02-16T01:44:24.523Z,91.10
2023-02-16T01:47:19.144Z,91.00
2023-02-16T01:49:46.324Z,90.80
2023-02-16T01:52:16.276Z,90.80
2023-02-16T01:54:54.026Z,91.00
2023-02-16T01:57:38.477Z,91.00
2023-02-16T02:00:24.892Z,90.90
2023-02-16T02:03:17.747Z,90.80
2023-02-16T02:05:45.711Z,90.70
2023-02-16T02:08:38.547Z,90.90
2023-02-16T02:11:19.903Z,90.80
2023-02-16T02:14:08.675Z,91.00
2023-02-16T02:16:36.214Z,91.00
2023-02-16T02:19:04.196Z,91.00
2023-02-16T02:22:30.676Z,90.90
2023-02-16T02:25:24.830Z,91.20
2023-02-16T02:28:14.086Z,91.20
2023-02-16T02:30:52.655Z,91.20
2023-02-16T02:33:26.792Z,90.90
2023-02-16T02:36:21.843Z,91.00
2023-02-16T02:39:08.556Z,90.80
2023-02-16T02:42:02.395Z,90.70
2023-02-16T02:44:42.473Z,90.70
2023-02-16T02:47:09.774Z,90.90
2023-02-16T02:49:37.122Z,90.70
2023-02-16T02:52:04.565Z,90.60
2023-02-16T02:54:55.227Z,90.60
2023-02-16T02:57:56.628Z,90.90
2023-02-16T03:00:47.790Z,90.80
2023-02-16T03:03:30.474Z,91.00
2023-02-16T03:06:03.094Z,91.00
2023-02-16T03:08:33.602Z,91.00
2023-02-16T03:11:29.987Z,91.20
2023-02-16T03:14:01.659Z,91.30
2023-02-16T03:16:37.483Z,91.30
2023-02-16T03:19:28.844Z,91.10
2023-02-16T03:22:16.312Z,91.10
2023-02-16T03:25:02.338Z,91.00
2023-02-16T03:27:57.311Z,90.80
2023-02-16T03:30:25.762Z,90.60
2023-02-16T03:32:55.572Z,90.20
2023-02-16T03:35:22.811Z,90.20
2023-02-16T03:37:49.975Z,89.60
2023-02-16T03:40:30.248Z,89.00
2023-02-16T03:43:01.054Z,88.90
2023-02-16T03:45:28.925Z,89.10
2023-02-16T03:47:56.160Z,89.20
2023-02-16T03:50:23.496Z,89.30
2023-02-16T03:52:50.722Z,89.50
2023-02-16T03:55:18.016Z,89.80
2023-02-16T03:57:45.217Z,89.80
2023-02-16T04:00:12.966Z,89.60
2023-02-16T04:02:43.916Z,89.90
2023-02-16T04:05:11.158Z,90.20
2023-02-16T04:07:38.346Z,90.30
2023-02-16T04:10:06.144Z,90.10
2023-02-16T04:12:36.137Z,90.00
2023-02-16T04:15:06.275Z,89.70
2023-02-16T04:17:33.504Z,89.60
2023-02-16T04:20:00.737Z,89.60
2023-02-16T04:23:32.713Z,89.60
2023-02-16T04:26:04.060Z,89.60
2023-02-16T04:28:31.270Z,89.60
2023-02-16T04:30:58.539Z,89.70
2023-02-16T04:33:25.797Z,89.40
2023-02-16T04:35:53.010Z,89.30
2023-02-16T04:38:20.253Z,89.60
2023-02-16T04:41:43.422Z,89.50
2023-02-16T04:44:10.625Z,89.20
2023-02-16T04:46:37.811Z,89.40
2023-02-16T04:49:05.104Z,89.50
2023-02-16T04:51:32.279Z,89.40
2023-02-16T04:53:59.489Z,89.30
2023-02-16T04:56:28.155Z,89.20
2023-02-16T04:58:56.234Z,89.40
2023-02-16T05:01:27.146Z,89.50
2023-02-16T05:04:24.530Z,89.50
2023-02-16T05:06:51.856Z,89.40
2023-02-16T05:09:19.213Z,89.30
2023-02-16T05:12:04.865Z,89.00
2023-02-16T05:14:47.174Z,89.10
2023-02-16T05:17:17.578Z,89.00
2023-02-16T05:19:49.179Z,88.50
2023-02-16T05:22:17.050Z,88.90
2023-02-16T05:24:47.999Z,89.00
2023-02-16T05:27:21.269Z,89.10
2023-02-16T05:29:52.288Z,88.90
2023-02-16T05:32:21.936Z,88.90
2023-02-16T05:34:49.217Z,89.20
2023-02-16T05:37:19.732Z,89.40
2023-02-16T05:39:55.477Z,89.30
2023-02-16T05:42:22.664Z,89.10
2023-02-16T05:44:49.859Z,89.20
2023-02-16T05:47:19.120Z,89.30
2023-02-16T05:49:46.352Z,89.30
2023-02-16T05:52:13.540Z,89.40
2023-02-16T05:54:42.825Z,89.60
2023-02-16T05:57:10.205Z,89.80
2023-02-16T05:59:37.485Z,89.90
2023-02-16T06:02:09.795Z,89.90
2023-02-16T06:04:38.103Z,89.90
2023-02-16T06:07:05.335Z,90.10
2023-02-16T06:09:32.525Z,89.60
2023-02-16T06:12:18.149Z,89.50
2023-02-16T06:14:45.363Z,89.50
2023-02-16T06:17:12.531Z,89.60
2023-02-16T06:19:39.728Z,89.50
2023-02-16T06:22:06.980Z,89.40
2023-02-16T06:24:34.216Z,89.30
2023-02-16T06:27:01.417Z,89.00
2023-02-16T06:29:28.647Z,88.10
2023-02-16T06:31:56.159Z,87.70
2023-02-16T06:34:23.554Z,88.10
2023-02-16T06:36:50.773Z,88.50
2023-02-16T06:39:18.043Z,88.80
2023-02-16T06:41:45.276Z,88.80
2023-02-16T06:44:15.449Z,88.40
2023-02-16T06:46:44.772Z,88.30
2023-02-16T06:49:14.407Z,88.50
2023-02-16T06:51:41.852Z,88.70
2023-02-16T06:54:10.717Z,88.80
2023-02-16T06:56:38.159Z,88.90
2023-02-16T06:59:05.537Z,88.90
2023-02-16T07:01:34.802Z,88.70
2023-02-16T07:04:01.999Z,88.20
2023-02-16T07:06:29.404Z,87.60
2023-02-16T07:08:56.630Z,87.00
2023-02-16T07:11:23.922Z,87.50
2023-02-16T07:13:51.409Z,88.30
2023-02-16T07:16:18.777Z,88.70
2023-02-16T07:18:46.546Z,89.10
2023-02-16T07:21:14.439Z,89.60
2023-02-16T07:23:42.333Z,89.30
2023-02-16T07:26:09.923Z,89.30
2023-02-16T07:28:37.205Z,88.80
2023-02-16T07:31:09.891Z,88.80
2023-02-16T07:33:37.718Z,88.90
2023-02-16T07:36:05.947Z,89.10
2023-02-16T07:39:00.115Z,89.20
2023-02-16T07:41:28.424Z,89.10
2023-02-16T07:43:55.627Z,89.40
2023-02-16T07:46:22.837Z,89.20
2023-02-16T07:48:50.896Z,89.00
2023-02-16T07:51:25.917Z,88.50
2023-02-16T07:53:53.606Z,88.30
2023-02-16T07:56:29.698Z,88.70
2023-02-16T07:58:58.863Z,89.20
2023-02-16T08:01:27.276Z,89.40
2023-02-16T08:03:54.462Z,89.10
2023-02-16T08:06:22.110Z,88.80
2023-02-16T08:08:49.690Z,88.50
2023-02-16T08:11:22.906Z,88.50
2023-02-16T08:13:50.915Z,88.30
2023-02-16T08:16:21.872Z,88.30
2023-02-16T08:18:56.667Z,89.00
2023-02-16T08:21:27.266Z,89.30
2023-02-16T08:23:57.291Z,89.60
2023-02-16T08:26:27.303Z,87.50
2023-02-16T08:28:56.796Z,86.80
2023-02-16T08:31:26.671Z,86.10
2023-02-16T08:33:54.923Z,84.60
2023-02-16T08:36:34.357Z,83.00
2023-02-16T08:39:04.691Z,83.00
2023-02-16T08:41:34.386Z,82.10
2023-02-16T08:44:02.749Z,81.30
2023-02-16T08:46:30.927Z,81.50
2023-02-16T08:48:59.863Z,82.20
2023-02-16T08:51:30.394Z,81.10
2023-02-16T08:54:00.278Z,79.80
2023-02-16T08:56:29.845Z,79.70
2023-02-16T08:58:58.062Z,79.70
2023-02-16T09:01:25.554Z,78.70
2023-02-16T09:03:55.473Z,79.00
2023-02-16T09:06:22.980Z,78.70
2023-02-16T09:08:53.254Z,77.90
2023-02-16T09:11:21.939Z,77.50
2023-02-16T09:13:49.673Z,77.40
2023-02-16T09:16:19.733Z,77.90
2023-02-16T09:18:47.197Z,77.70
2023-02-16T09:21:19.447Z,77.20
2023-02-16T09:23:49.222Z,77.50
2023-02-16T09:26:18.262Z,77.10
2023-02-16T09:28:46.182Z,75.50
2023-02-16T09:31:14.550Z,75.50
2023-02-16T09:33:43.528Z,74.90
2023-02-16T09:36:12.828Z,75.10
2023-02-16T09:38:40.484Z,75.50
2023-02-16T09:41:18.282Z,75.80
2023-02-16T09:43:48.649Z,76.00
2023-02-16T09:46:22.225Z,76.10
2023-02-16T09:48:50.957Z,75.60
2023-02-16T09:51:29.365Z,75.60
2023-02-16T09:54:22.830Z,75.80
2023-02-16T09:57:14.638Z,74.30
2023-02-16T09:59:52.809Z,73.70
2023-02-16T10:02:35.130Z,73.00
2023-02-16T10:05:17.346Z,71.30
2023-02-16T10:08:05.587Z,70.60
2023-02-16T10:10:44.554Z,71.50
2023-02-16T10:13:43.841Z,71.10
2023-02-16T10:16:20.669Z,70.20
2023-02-16T10:18:50.437Z,70.40
2023-02-16T10:21:24.187Z,70.80
2023-02-16T10:24:07.042Z,70.20
2023-02-16T10:27:04.440Z,69.10
2023-02-16T10:29:31.633Z,67.60
2023-02-16T10:32:23.730Z,66.60
2023-02-16T10:35:04.591Z,64.50
2023-02-16T10:37:45.751Z,65.80
2023-02-16T10:40:23.309Z,66.00
2023-02-16T10:43:24.481Z,66.00
2023-02-16T10:45:53.022Z,64.70
2023-02-16T10:48:21.910Z,64.60
2023-02-16T10:51:03.477Z,63.90
2023-02-16T10:53:43.732Z,63.00
2023-02-16T10:56:49.588Z,62.40
2023-02-16T10:59:18.933Z,63.40
2023-02-16T11:01:50.150Z,61.60
2023-02-16T11:04:39.768Z,60.60
2023-02-16T11:07:14.195Z,58.00
2023-02-16T11:09:43.489Z,56.40
2023-02-16T11:12:27.292Z,57.30
2023-02-16T11:15:24.793Z,57.50
2023-02-16T11:18:08.061Z,55.50
2023-02-16T11:20:35.218Z,53.80
2023-02-16T11:23:28.041Z,53.90
2023-02-16T11:26:10.496Z,56.40
2023-02-16T11:28:44.138Z,55.50
2023-02-16T11:31:13.915Z,55.10
2023-02-16T11:33:42.538Z,54.80
2023-02-16T11:36:24.196Z,53.80
2023-02-16T11:39:02.610Z,52.80
2023-02-16T11:41:30.778Z,53.50
2023-02-16T11:43:58.125Z,53.00
2023-02-16T11:46:25.955Z,54.60
2023-02-16T11:48:53.739Z,54.20
2023-02-16T11:51:36.381Z,54.50
2023-02-16T11:54:05.970Z,54.80
2023-02-16T11:56:40.787Z,54.50
2023-02-16T11:59:21.940Z,52.70
2023-02-16T12:02:08.560Z,52.60
2023-02-16T12:04:57.811Z,51.20
2023-02-16T12:07:46.943Z,49.70
2023-02-16T12:10:29.877Z,49.00
2023-02-16T12:13:00.149Z,49.50
2023-02-16T12:15:44.812Z,51.30
2023-02-16T12:18:53.449Z,48.50
2023-02-16T12:21:49.358Z,49.30
2023-02-16T12:24:45.103Z,50.10
2023-02-16T12:27:52.486Z,46.50
2023-02-16T12:30:44.825Z,46.70
2023-02-16T12:33:33.261Z,50.30
2023-02-16T12:36:31.697Z,49.90
2023-02-16T12:39:29.879Z,49.00
2023-02-16T12:42:39.022Z,49.00
2023-02-16T12:45:22.722Z,49.90
2023-02-16T12:48:01.218Z,48.90
2023-02-16T12:50:32.550Z,48.80
2023-02-16T12:53:26.899Z,50.20
2023-02-16T12:55:59.484Z,49.40
2023-02-16T12:58:32.126Z,47.70
2023-02-16T13:01:19.750Z,47.30
2023-02-16T13:04:33.744Z,47.20
2023-02-16T13:07:16.271Z,45.80
2023-02-16T13:09:58.634Z,46.80
2023-02-16T13:12:55.583Z,44.30
2023-02-16T13:15:32.431Z,43.90
2023-02-16T13:18:23.841Z,45.40
2023-02-16T13:21:04.231Z,45.00
2023-02-16T13:23:51.588Z,47.00
2023-02-16T13:26:25.017Z,47.80
2023-02-16T13:29:29.060Z,50.30
2023-02-16T13:35:29.975Z,52.90
2023-02-16T13:38:03.391Z,52.60
2023-02-16T13:40:56.307Z,52.60
2023-02-16T13:43:41.021Z,52.90
2023-02-16T13:46:17.889Z,53.20
2023-02-16T13:48:46.860Z,54.20
2023-02-16T13:51:18.199Z,53.30
2023-02-16T13:53:54.378Z,53.00
2023-02-16T13:56:36.988Z,52.30
2023-02-16T13:59:16.994Z,52.20
2023-02-16T14:01:51.409Z,50.00
2023-02-16T14:04:24.976Z,49.20
2023-02-16T14:07:19.995Z,49.40
2023-02-16T14:09:48.487Z,48.40
2023-02-16T14:12:28.041Z,47.70
2023-02-16T14:15:01.897Z,48.40
2023-02-16T14:17:35.539Z,49.50
2023-02-16T14:20:09.008Z,50.50
2023-02-16T14:23:02.519Z,50.90
2023-02-16T14:25:37.257Z,51.70
2023-02-16T14:28:22.937Z,52.00
2023-02-16T14:30:54.434Z,51.70
2023-02-16T14:33:40.769Z,51.80
2023-02-16T14:36:16.647Z,52.00
2023-02-16T14:38:50.356Z,52.20
2023-02-16T14:41:25.813Z,53.70
2023-02-16T14:44:36.826Z,53.50
2023-02-16T14:47:25.705Z,54.40
2023-02-16T14:50:11.625Z,55.70
2023-02-16T14:53:17.199Z,55.40
2023-02-16T14:55:47.417Z,56.10
2023-02-16T14:58:25.873Z,57.90
2023-02-16T15:00:54.005Z,58.40
2023-02-16T15:03:24.219Z,58.00
2023-02-16T15:06:02.264Z,58.50
2023-02-16T15:08:39.344Z,58.90
2023-02-16T15:11:34.533Z,59.10
2023-02-16T15:14:04.480Z,59.40
2023-02-16T15:16:32.741Z,59.70
2023-02-16T15:19:07.637Z,59.10
2023-02-16T15:21:34.863Z,59.40
2023-02-16T15:24:08.003Z,60.30
2023-02-16T15:26:36.163Z,61.00
2023-02-16T15:29:21.208Z,61.00
2023-02-16T15:31:49.120Z,62.10
2023-02-16T15:34:36.073Z,62.30
2023-02-16T15:37:29.600Z,61.70
2023-02-16T15:40:25.015Z,62.00
2023-02-16T15:42:57.512Z,62.50
2023-02-16T15:45:32.493Z,63.90
2023-02-16T15:48:38.229Z,64.60
2023-02-16T15:51:17.527Z,64.40
2023-02-16T15:54:08.782Z,64.00
2023-02-16T15:57:34.967Z,63.80
2023-02-16T16:00:25.437Z,64.10
2023-02-16T16:02:58.372Z,64.10
2023-02-16T16:05:39.760Z,64.50
2023-02-16T16:08:07.655Z,64.10
2023-02-16T16:10:42.168Z,64.20
2023-02-16T16:13:29.914Z,65.40
2023-02-16T16:16:06.814Z,65.80
2023-02-16T16:18:46.666Z,66.20
2023-02-16T16:21:24.761Z,66.80
2023-02-16T16:23:55.140Z,67.20
2023-02-16T16:26:24.393Z,67.10
2023-02-16T16:28:52.590Z,65.90
2023-02-16T16:31:22.929Z,66.90
2023-02-16T16:34:05.482Z,67.30
2023-02-16T16:36:35.984Z,67.00
2023-02-16T16:39:18.435Z,67.10
2023-02-16T16:41:57.761Z,66.80
2023-02-16T16:44:34.037Z,66.90
2023-02-16T16:47:29.303Z,67.40
2023-02-16T16:50:09.174Z,67.90
2023-02-16T16:52:44.840Z,68.10
2023-02-16T16:55:27.200Z,68.00
2023-02-16T16:58:00.319Z,68.10
2023-02-16T17:00:31.543Z,68.00
2023-02-16T17:02:58.797Z,68.50
2023-02-16T17:05:26.315Z,68.50
2023-02-16T17:07:53.669Z,68.00
2023-02-16T17:10:21.924Z,68.50
2023-02-16T17:12:53.069Z,69.00
2023-02-16T17:15:56.760Z,69.50
2023-02-16T17:18:24.013Z,69.10
2023-02-16T17:20:51.543Z,68.10
2023-02-16T17:23:20.647Z,66.60
2023-02-16T17:25:48.386Z,64.70
2023-02-16T17:28:17.441Z,64.80
2023-02-16T17:30:44.800Z,64.80
2023-02-16T17:33:12.371Z,64.30
2023-02-16T17:35:42.592Z,63.90
2023-02-16T17:38:19.343Z,64.00
2023-02-16T17:40:52.144Z,64.20
2023-02-16T17:43:21.361Z,64.60
2023-02-16T17:45:49.766Z,64.30
2023-02-16T17:48:21.165Z,64.70
2023-02-16T17:50:49.401Z,65.00
2023-02-16T17:53:18.977Z,65.40
2023-02-16T17:55:48.244Z,65.80
2023-02-16T17:58:16.432Z,66.10
2023-02-16T18:00:45.039Z,66.00
2023-02-16T18:03:12.331Z,66.20
2023-02-16T18:05:39.915Z,66.40
2023-02-16T18:08:07.842Z,66.60
2023-02-16T18:10:47.390Z,66.80
2023-02-16T18:13:15.443Z,66.80
2023-02-16T18:15:47.580Z,67.10
2023-02-16T18:18:21.293Z,67.70
2023-02-16T18:20:48.537Z,68.60
2023-02-16T18:23:15.837Z,69.10
2023-02-16T18:25:44.066Z,69.20
2023-02-16T18:28:20.123Z,69.40
2023-02-16T18:30:49.148Z,69.70
2023-02-16T18:33:21.277Z,70.30
2023-02-16T18:35:52.874Z,70.80
2023-02-16T18:38:31.534Z,70.90
2023-02-16T18:40:58.773Z,71.50
2023-02-16T18:43:27.056Z,72.00
2023-02-16T18:45:54.293Z,72.30
2023-02-16T18:48:24.658Z,72.10
2023-02-16T18:50:51.954Z,72.50
2023-02-16T18:53:20.220Z,72.50
2023-02-16T18:55:47.416Z,72.10
2023-02-16T18:58:15.005Z,71.90
2023-02-16T19:00:42.927Z,71.90
2023-02-16T19:03:12.330Z,71.80
2023-02-16T19:05:39.550Z,72.00
2023-02-16T19:08:08.761Z,72.00
2023-02-16T19:10:35.906Z,72.20
2023-02-16T19:13:03.325Z,72.20
2023-02-16T19:15:30.629Z,72.30
2023-02-16T19:18:00.986Z,72.40
2023-02-16T19:20:29.588Z,72.70
2023-02-16T19:23:01.905Z,72.50
2023-02-16T19:25:29.326Z,72.40
2023-02-16T19:27:56.596Z,72.50
2023-02-16T19:30:24.283Z,72.60
2023-02-16T19:32:53.602Z,72.80
2023-02-16T19:35:20.988Z,73.00
2023-02-16T19:37:48.266Z,73.10
2023-02-16T19:40:18.680Z,73.30
2023-02-16T19:42:45.927Z,73.20
2023-02-16T19:45:13.357Z,73.40
2023-02-16T19:47:40.625Z,73.60
2023-02-16T19:50:09.141Z,73.50
2023-02-16T19:52:36.341Z,73.80
2023-02-16T19:55:05.842Z,74.30
2023-02-16T19:57:33.382Z,74.20
2023-02-16T20:00:00.629Z,74.70
2023-02-16T20:02:27.880Z,74.60
2023-02-16T20:04:55.117Z,74.90
2023-02-16T20:07:24.364Z,75.00
2023-02-16T20:09:51.605Z,75.00
2023-02-16T20:12:19.587Z,75.10
2023-02-16T20:14:46.784Z,75.40
2023-02-16T20:17:44.412Z,75.40
2023-02-16T20:20:12.554Z,75.40
2023-02-16T20:22:39.917Z,75.60
2023-02-16T20:25:07.203Z,75.90
2023-02-16T20:27:35.261Z,75.80
2023-02-16T20:30:06.111Z,75.80
2023-02-16T20:32:34.017Z,75.80
2023-02-16T20:35:07.324Z,76.00
2023-02-16T20:37:35.151Z,76.10
2023-02-16T20:40:02.590Z,76.10
2023-02-16T20:42:29.857Z,76.10
2023-02-16T20:44:57.118Z,76.10
2023-02-16T20:47:24.372Z,75.90
2023-02-16T20:49:51.610Z,76.00
2023-02-16T20:52:18.849Z,76.10
2023-02-16T20:54:46.181Z,76.20
2023-02-16T20:57:26.065Z,76.50
2023-02-16T20:59:54.856Z,76.50
2023-02-16T21:02:22.231Z,76.80
2023-02-16T21:04:49.599Z,76.80
2023-02-16T21:07:16.878Z,76.80
2023-02-16T21:09:44.143Z,76.80
2023-02-16T21:12:13.033Z,76.70
2023-02-16T21:14:40.270Z,77.10
2023-02-16T21:17:08.554Z,77.30
2023-02-16T21:19:37.825Z,77.40
2023-02-16T21:22:05.165Z,77.60
2023-02-16T21:24:32.400Z,77.70
2023-02-16T21:26:59.590Z,77.80
2023-02-16T21:29:26.782Z,77.60
2023-02-16T21:31:55.416Z,78.00
2023-02-16T21:34:23.237Z,78.20
2023-02-16T21:36:51.494Z,78.10
2023-02-16T21:39:41.070Z,78.10
2023-02-16T21:42:08.654Z,78.50
2023-02-16T21:44:43.034Z,79.60
2023-02-16T21:47:33.531Z,80.10
2023-02-16T21:50:01.359Z,80.60
2023-02-16T21:52:28.564Z,80.30
2023-02-16T21:55:14.572Z,80.70
2023-02-16T21:57:42.277Z,80.20
2023-02-16T22:00:15.518Z,80.50
2023-02-16T22:02:43.256Z,80.30
2023-02-16T22:05:12.453Z,80.50
2023-02-16T22:07:40.138Z,80.80
2023-02-16T22:10:09.685Z,81.20
2023-02-16T22:12:36.992Z,81.30
2023-02-16T22:15:04.276Z,81.50
2023-02-16T22:17:33.707Z,81.90
2023-02-16T22:20:01.164Z,82.30
2023-02-16T22:22:29.481Z,82.40
2023-02-16T22:24:57.741Z,82.30
2023-02-16T22:27:25.415Z,82.30
2023-02-16T22:29:53.606Z,82.40
2023-02-16T22:32:24.970Z,82.40
2023-02-16T22:34:54.132Z,82.20
2023-02-16T22:37:22.084Z,82.10
2023-02-16T22:39:49.516Z,82.10
2023-02-16T22:42:16.822Z,82.00
2023-02-16T22:44:44.066Z,82.10
2023-02-16T22:47:11.757Z,81.90
2023-02-16T22:49:39.252Z,81.90
2023-02-16T22:52:06.725Z,81.90
2023-02-16T22:54:34.372Z,81.70
2023-02-16T22:57:03.880Z,81.90
2023-02-16T23:02:14.475Z,81.80
2023-02-16T23:04:43.317Z,81.70
2023-02-16T23:07:10.765Z,81.90
2023-02-16T23:09:38.786Z,82.30
2023-02-16T23:12:06.443Z,82.20
2023-02-16T23:14:36.845Z,82.40
2023-02-16T23:17:04.200Z,82.30
2023-02-16T23:19:32.416Z,82.40
2023-02-16T23:21:59.850Z,82.40
2023-02-16T23:24:27.542Z,82.30
2023-02-16T23:26:55.492Z,82.60
2023-02-16T23:29:23.184Z,82.50
2023-02-16T23:31:51.793Z,82.20
2023-02-16T23:34:21.245Z,82.30
2023-02-16T23:36:48.708Z,82.20
2023-02-16T23:39:18.669Z,82.10
2023-02-16T23:41:46.941Z,81.90
2023-02-16T23:44:15.882Z,81.90
2023-02-16T23:46:43.350Z,82.10
2023-02-16T23:49:10.652Z,82.10
2023-02-16T23:51:37.836Z,82.10
2023-02-16T23:54:05.385Z,82.20
2023-02-16T23:56:33.888Z,82.10
2023-02-16T23:59:01.790Z,82.10
